Time;durP1;ratioP1;P1;durP2;ratioP2;P2;SDS_P1;SDS_P2;PMS_P1;PMS_P2;Temp;Humidity;BMP_temperature;BMP_pressure;BME280_temperature;BME280_humidity;BME280_pressure;Samples;Min_cycle;Max_cycle;Signal;HPM_P1;HPM_P2
2022/09/01 00:00:27;;;;;;;0.40;0.40;;;17.60;99.90;;;;;;4390633;32;20087;-73
2022/09/01 00:02:54;;;;;;;0.40;0.40;;;17.60;99.90;;;;;;4388962;32;20732;-73
2022/09/01 00:05:19;;;;;;;0.40;0.40;;;17.60;99.90;;;;;;4374266;32;20078;-73
2022/09/01 00:07:45;;;;;;;2.40;0.73;;;17.50;99.90;;;;;;4361160;32;20573;-73
2022/09/01 00:10:11;;;;;;;0.30;0.30;;;17.50;99.90;;;;;;4378664;32;20432;-73
2022/09/01 00:12:37;;;;;;;1.30;0.60;;;17.60;99.90;;;;;;4392885;32;20062;-74
2022/09/01 00:15:04;;;;;;;0.20;0.20;;;17.50;99.90;;;;;;4392962;32;20069;-74
2022/09/01 00:17:30;;;;;;;0.20;0.20;;;17.50;99.90;;;;;;4392211;32;20133;-74
2022/09/01 00:19:55;;;;;;;0.35;0.35;;;17.40;99.90;;;;;;4380712;32;20086;-74
2022/09/01 00:22:21;;;;;;;0.30;0.30;;;17.50;99.90;;;;;;4386399;32;20062;-74
2022/09/01 00:24:47;;;;;;;0.30;0.30;;;17.40;99.90;;;;;;4393161;32;20502;-74
2022/09/01 00:27:12;;;;;;;0.35;0.35;;;17.40;99.90;;;;;;4392333;32;20715;-74
2022/09/01 00:29:38;;;;;;;0.30;0.30;;;17.30;99.90;;;;;;4392998;32;20174;-74
2022/09/01 00:32:04;;;;;;;0.30;0.30;;;17.30;99.90;;;;;;4393074;32;20095;-74
2022/09/01 00:34:29;;;;;;;0.32;0.30;;;17.30;99.90;;;;;;4379830;32;20090;-74
2022/09/01 00:36:55;;;;;;;3.33;1.15;;;17.30;99.90;;;;;;4366297;32;20293;-74
2022/09/01 00:39:20;;;;;;;0.30;0.30;;;17.30;99.90;;;;;;4371207;32;20487;-74
2022/09/01 00:41:46;;;;;;;0.30;0.30;;;17.30;99.90;;;;;;4395550;32;20125;-74
2022/09/01 00:44:16;;;;;;;0.20;0.20;;;17.30;99.90;;;;;;4393302;32;20091;-74
2022/09/01 00:46:45;;;;;;;0.30;0.30;;;17.30;99.90;;;;;;4394148;32;20070;-74
2022/09/01 00:49:16;;;;;;;0.40;0.40;;;17.40;99.90;;;;;;4384728;32;20070;-74
2022/09/01 00:51:43;;;;;;;;;;;17.30;99.90;;;;;;4383245;32;20066;-74
2022/09/01 00:54:12;;;;;;;0.40;0.40;;;17.30;99.90;;;;;;4392959;32;19961;-74
2022/09/01 00:56:40;;;;;;;0.22;0.22;;;17.30;99.90;;;;;;4391632;32;20077;-74
2022/09/01 00:59:07;;;;;;;0.30;0.30;;;17.20;99.90;;;;;;4393101;32;20117;-74
2022/09/01 01:01:35;;;;;;;0.22;0.22;;;17.20;99.90;;;;;;4393386;32;20065;-74
2022/09/01 01:04:02;;;;;;;0.25;0.25;;;17.20;99.90;;;;;;4384597;32;20207;-74
2022/09/01 01:06:31;;;;;;;0.30;0.30;;;17.20;99.90;;;;;;4370461;32;20069;-73
2022/09/01 01:08:59;;;;;;;0.20;0.20;;;17.20;99.90;;;;;;4369519;32;20160;-73
2022/09/01 01:11:27;;;;;;;0.50;0.50;;;17.20;99.90;;;;;;4392391;32;20047;-74
2022/09/01 01:13:56;;;;;;;0.30;0.30;;;17.10;99.90;;;;;;4394294;32;20066;-74
2022/09/01 01:16:24;;;;;;;0.30;0.30;;;17.20;99.90;;;;;;4391324;32;20530;-74
2022/09/01 01:18:51;;;;;;;0.30;0.30;;;17.20;99.90;;;;;;4385523;32;20057;-74
2022/09/01 01:23:25;;;;;;;2.83;0.57;;;17.20;99.90;;;;;;4383201;32;20098;-73
2022/09/01 01:24:23;;;;;;;0.20;0.20;;;17.20;99.90;;;;;;4380685;32;20110;-73
2022/09/01 01:26:48;;;;;;;0.40;0.40;;;17.10;99.90;;;;;;4391217;32;20305;-74
2022/09/01 01:29:16;;;;;;;0.40;0.40;;;17.10;99.90;;;;;;4394176;32;20878;-74
2022/09/01 01:31:42;;;;;;;0.43;0.40;;;17.00;99.90;;;;;;4393522;32;20066;-73
2022/09/01 01:34:08;;;;;;;0.20;0.20;;;17.10;99.90;;;;;;4383685;32;20102;-73
2022/09/01 01:36:36;;;;;;;0.30;0.30;;;17.10;99.90;;;;;;4371319;32;20418;-73
2022/09/01 01:39:08;;;;;;;0.30;0.30;;;17.10;99.90;;;;;;4369160;32;20570;-73
2022/09/01 01:41:36;;;;;;;0.30;0.30;;;17.00;99.90;;;;;;4394992;32;20074;-73
2022/09/01 01:44:04;;;;;;;0.30;0.30;;;17.10;99.90;;;;;;4391387;32;20077;-73
2022/09/01 01:46:31;;;;;;;0.43;0.43;;;17.10;99.90;;;;;;4392259;32;20498;-73
2022/09/01 01:48:57;;;;;;;0.22;0.22;;;17.10;99.90;;;;;;4384097;32;20099;-73
2022/09/01 01:51:26;;;;;;;0.30;0.30;;;17.00;99.90;;;;;;4382692;32;20093;-73
2022/09/01 01:53:52;;;;;;;0.30;0.30;;;17.10;99.90;;;;;;4390985;32;20482;-74
2022/09/01 01:56:21;;;;;;;0.52;0.52;;;17.10;99.90;;;;;;4390592;32;20133;-73
2022/09/01 01:58:47;;;;;;;0.40;0.40;;;17.00;99.90;;;;;;4393014;32;20121;-74
2022/09/01 02:01:15;;;;;;;0.35;0.35;;;17.00;99.90;;;;;;4392746;32;20822;-74
2022/09/01 02:03:41;;;;;;;0.28;0.28;;;17.00;99.90;;;;;;4383474;32;20090;-74
2022/09/01 02:06:10;;;;;;;0.30;0.30;;;16.90;99.90;;;;;;4372969;32;20596;-74
2022/09/01 02:08:37;;;;;;;0.30;0.30;;;16.90;99.90;;;;;;4367645;32;20088;-73
2022/09/01 02:11:05;;;;;;;0.40;0.40;;;16.80;99.90;;;;;;4386822;32;20123;-73
2022/09/01 02:13:30;;;;;;;0.25;0.25;;;16.80;99.90;;;;;;4392449;32;20086;-74
2022/09/01 02:15:59;;;;;;;0.30;0.30;;;16.80;99.90;;;;;;4392061;32;20460;-74
2022/09/01 02:18:33;;;;;;;0.30;0.30;;;16.80;99.90;;;;;;4384572;32;20220;-74
2022/09/01 02:20:59;;;;;;;0.30;0.30;;;16.80;99.90;;;;;;4380770;32;20487;-74
2022/09/01 02:23:25;;;;;;;0.37;0.37;;;16.80;99.90;;;;;;4389386;32;20086;-74
2022/09/01 02:25:54;;;;;;;0.32;0.32;;;16.70;99.90;;;;;;4389307;32;20537;-74
2022/09/01 02:28:22;;;;;;;0.55;0.55;;;16.70;99.90;;;;;;4391061;32;20121;-74
2022/09/01 02:30:53;;;;;;;0.40;0.40;;;16.70;99.90;;;;;;4391943;32;20534;-74
2022/09/01 02:33:20;;;;;;;0.30;0.30;;;16.60;99.90;;;;;;4387268;32;20153;-73
2022/09/01 02:35:49;;;;;;;0.40;0.40;;;16.60;99.90;;;;;;4370212;32;20614;-73
2022/09/01 02:38:16;;;;;;;2.72;0.65;;;16.60;99.90;;;;;;4367016;32;20478;-73
2022/09/01 02:40:45;;;;;;;0.40;0.40;;;16.60;99.90;;;;;;4383687;32;20078;-73
2022/09/01 02:43:15;;;;;;;0.30;0.30;;;16.60;99.90;;;;;;4392948;32;20186;-74
2022/09/01 02:45:43;;;;;;;0.30;0.30;;;16.50;99.90;;;;;;4391080;32;20082;-74
2022/09/01 02:48:09;;;;;;;0.32;0.30;;;16.60;99.90;;;;;;4385143;32;20853;-74
2022/09/01 02:50:36;;;;;;;3.92;0.40;;;16.60;99.90;;;;;;4380980;32;20082;-73
2022/09/01 02:53:01;;;;;;;0.30;0.30;;;16.50;99.90;;;;;;4391283;32;20083;-74
2022/09/01 02:55:27;;;;;;;0.25;0.25;;;16.50;99.90;;;;;;4391208;32;20764;-74
2022/09/01 02:57:56;;;;;;;0.80;0.70;;;16.50;99.90;;;;;;4392011;32;20089;-74
2022/09/01 03:00:27;;;;;;;0.30;0.30;;;16.50;99.90;;;;;;4390139;32;20065;-74
2022/09/01 03:02:55;;;;;;;0.43;0.43;;;16.40;99.90;;;;;;4391172;32;20089;-74
2022/09/01 03:05:25;;;;;;;0.30;0.30;;;16.40;99.90;;;;;;4371191;32;20074;-73
2022/09/01 03:08:00;;;;;;;0.32;0.32;;;16.40;99.90;;;;;;4364283;32;20412;-73
2022/09/01 03:10:31;;;;;;;0.88;0.75;;;16.40;99.90;;;;;;4383414;32;20078;-73
2022/09/01 03:12:59;;;;;;;;;;;16.30;99.90;;;;;;4394222;32;20079;-73
2022/09/01 03:15:26;;;;;;;0.85;0.85;;;16.30;99.90;;;;;;4391283;32;20488;-73
2022/09/01 03:17:51;;;;;;;0.32;0.32;;;16.20;99.90;;;;;;4386516;32;20089;-73
2022/09/01 03:20:20;;;;;;;0.45;0.45;;;16.00;99.90;;;;;;4380318;32;20078;-73
2022/09/01 03:22:46;;;;;;;0.20;0.20;;;15.90;99.90;;;;;;4389265;32;20089;-73
2022/09/01 03:25:12;;;;;;;0.30;0.30;;;16.00;99.90;;;;;;4388717;32;20079;-73
2022/09/01 03:27:38;;;;;;;21.98;1.75;;;16.00;99.90;;;;;;4395463;32;20513;-73
2022/09/01 03:30:04;;;;;;;0.40;0.40;;;16.00;99.90;;;;;;4391099;32;20087;-73
2022/09/01 03:32:29;;;;;;;0.30;0.30;;;16.00;99.90;;;;;;4392524;32;20482;-73
2022/09/01 03:34:56;;;;;;;0.30;0.30;;;16.00;99.90;;;;;;4378735;32;20197;-74
2022/09/01 03:37:22;;;;;;;0.30;0.30;;;15.90;99.90;;;;;;4363784;32;20082;-74
2022/09/01 03:39:47;;;;;;;0.20;0.20;;;15.90;99.90;;;;;;4374559;32;20086;-74
2022/09/01 03:42:24;;;;;;;0.20;0.20;;;15.90;99.90;;;;;;4393689;32;20419;-74
2022/09/01 03:44:50;;;;;;;0.30;0.30;;;15.80;99.90;;;;;;4392259;32;20058;-74
2022/09/01 03:47:16;;;;;;;0.40;0.40;;;15.70;99.90;;;;;;4389529;32;20554;-74
2022/09/01 03:49:42;;;;;;;0.30;0.30;;;15.70;99.90;;;;;;4379978;32;20549;-73
2022/09/01 03:52:09;;;;;;;0.37;0.37;;;15.60;99.90;;;;;;4389459;32;20112;-74
2022/09/01 03:54:35;;;;;;;0.40;0.40;;;15.50;99.90;;;;;;4393205;32;20502;-74
2022/09/01 03:57:00;;;;;;;0.37;0.37;;;15.50;99.90;;;;;;4392803;32;20083;-74
2022/09/01 03:59:27;;;;;;;0.40;0.40;;;15.40;99.90;;;;;;4393444;32;20066;-74
2022/09/01 04:01:53;;;;;;;0.32;0.32;;;15.40;99.90;;;;;;4395895;32;20121;-74
2022/09/01 04:04:18;;;;;;;0.30;0.30;;;15.40;99.90;;;;;;4381498;32;20614;-74
2022/09/01 04:06:45;;;;;;;0.30;0.30;;;15.40;99.90;;;;;;4367721;32;20222;-74
2022/09/01 04:09:11;;;;;;;0.30;0.30;;;15.40;99.90;;;;;;4371526;32;20110;-73
2022/09/01 04:11:38;;;;;;;0.40;0.40;;;15.30;99.90;;;;;;4394465;32;20101;-73
2022/09/01 04:14:04;;;;;;;0.37;0.37;;;15.30;99.90;;;;;;4395529;32;20082;-73
2022/09/01 04:18:08;;;;;;;0.30;0.30;;;15.30;99.90;;;;;;4391372;32;20153;-73
2022/09/01 04:19:24;;;;;;;0.80;0.40;;;15.20;99.90;;;;;;4370281;32;20480;-73
2022/09/01 04:21:53;;;;;;;0.37;0.37;;;15.20;99.90;;;;;;4372141;32;20265;-72
2022/09/01 04:24:23;;;;;;;0.57;0.57;;;15.20;99.90;;;;;;4354457;32;20218;-74
2022/09/01 04:26:49;;;;;;;1.10;0.75;;;15.20;99.90;;;;;;4355145;32;20501;-74
2022/09/01 04:29:18;;;;;;;0.30;0.30;;;15.30;99.90;;;;;;4354596;32;20725;-74
2022/09/01 04:31:44;;;;;;;0.30;0.30;;;15.20;99.90;;;;;;4355844;32;20543;-74
2022/09/01 04:34:12;;;;;;;0.30;0.30;;;15.10;99.90;;;;;;4347265;32;20094;-74
2022/09/01 04:36:40;;;;;;;0.40;0.40;;;15.10;99.90;;;;;;4370108;32;20086;-74
2022/09/01 04:39:08;;;;;;;0.30;0.30;;;15.00;99.90;;;;;;4371741;32;20209;-73
2022/09/01 04:41:36;;;;;;;0.50;0.50;;;14.90;99.90;;;;;;4393705;32;20133;-73
2022/09/01 04:44:04;;;;;;;0.40;0.40;;;14.90;99.90;;;;;;4393055;32;20071;-73
2022/09/01 04:46:34;;;;;;;0.40;0.40;;;14.90;99.90;;;;;;4392259;32;20110;-74
2022/09/01 04:49:06;;;;;;;0.30;0.30;;;14.80;99.90;;;;;;4382799;32;20081;-73
2022/09/01 04:51:32;;;;;;;0.30;0.30;;;14.80;99.90;;;;;;4379543;32;20069;-73
2022/09/01 04:53:58;;;;;;;0.40;0.40;;;14.80;99.90;;;;;;4355888;32;20094;-73
2022/09/01 04:56:25;;;;;;;2.20;0.70;;;14.60;99.90;;;;;;4362844;32;20082;-73
2022/09/01 04:58:54;;;;;;;0.32;0.32;;;14.60;99.90;;;;;;4390733;32;20563;-73
2022/09/01 05:01:22;;;;;;;1.35;0.73;;;14.60;99.90;;;;;;4382986;32;20383;-73
2022/09/01 05:03:55;;;;;;;0.43;0.43;;;14.70;99.90;;;;;;4366356;32;20078;-73
2022/09/01 05:06:21;;;;;;;0.62;0.62;;;14.80;99.90;;;;;;4344060;32;20074;-73
2022/09/01 05:08:48;;;;;;;1.20;0.50;;;14.80;99.90;;;;;;4333494;32;20070;-74
2022/09/01 05:11:16;;;;;;;0.88;0.50;;;14.90;99.90;;;;;;4348493;32;20114;-74
2022/09/01 05:13:44;;;;;;;0.30;0.30;;;14.90;99.90;;;;;;4351754;32;20085;-73
2022/09/01 05:16:14;;;;;;;0.35;0.35;;;15.00;99.90;;;;;;4356338;32;20301;-73
2022/09/01 05:18:43;;;;;;;0.40;0.40;;;15.10;99.90;;;;;;4318098;32;20708;-73
2022/09/01 05:21:09;;;;;;;0.30;0.30;;;15.20;99.90;;;;;;4312435;32;20424;-74
2022/09/01 05:23:37;;;;;;;0.20;0.20;;;15.20;99.90;;;;;;4286705;32;20446;-73
2022/09/01 05:26:06;;;;;;;0.93;0.93;;;15.20;99.90;;;;;;4292384;32;20355;-73
2022/09/01 05:28:31;;;;;;;0.32;0.32;;;15.20;99.90;;;;;;4304108;32;20510;-75
2022/09/01 05:30:59;;;;;;;0.50;0.50;;;15.20;99.90;;;;;;4291387;32;20626;-75
2022/09/01 05:33:25;;;;;;;1.00;0.98;;;15.20;99.90;;;;;;4313332;32;20225;-75
2022/09/01 05:36:00;;;;;;;0.43;0.43;;;15.20;99.90;;;;;;4326585;32;20334;-73
2022/09/01 05:38:25;;;;;;;0.30;0.30;;;15.20;99.90;;;;;;4313621;32;20444;-73
2022/09/01 05:41:00;;;;;;;0.60;0.60;;;15.30;99.90;;;;;;4326470;32;20125;-73
2022/09/01 05:43:27;;;;;;;0.30;0.30;;;15.30;99.90;;;;;;4340764;32;20142;-74
2022/09/01 05:45:54;;;;;;;0.40;0.40;;;15.40;99.90;;;;;;4349081;32;20311;-73
2022/09/01 05:48:20;;;;;;;0.25;0.25;;;15.40;99.90;;;;;;4350935;32;20499;-73
2022/09/01 05:50:48;;;;;;;0.50;0.50;;;15.40;99.90;;;;;;4337402;32;21043;-75
2022/09/01 05:53:16;;;;;;;0.40;0.40;;;15.50;99.90;;;;;;4349373;32;20224;-73
2022/09/01 05:55:47;;;;;;;0.40;0.40;;;15.50;99.90;;;;;;4353089;32;20153;-75
2022/09/01 05:58:15;;;;;;;0.30;0.30;;;15.60;99.90;;;;;;4350474;32;20344;-73
2022/09/01 06:00:45;;;;;;;0.52;0.40;;;15.60;99.90;;;;;;4332800;32;20106;-73
2022/09/01 06:03:13;;;;;;;0.40;0.40;;;15.60;99.90;;;;;;4326578;32;20375;-74
2022/09/01 06:05:39;;;;;;;0.35;0.35;;;15.60;99.90;;;;;;4323244;32;20330;-74
2022/09/01 06:08:06;;;;;;;0.25;0.25;;;15.70;99.90;;;;;;4335619;32;20086;-74
2022/09/01 06:10:34;;;;;;;0.30;0.30;;;15.80;99.90;;;;;;4349140;32;20134;-74
2022/09/01 06:13:01;;;;;;;0.30;0.30;;;15.80;99.90;;;;;;4347090;32;20126;-75
2022/09/01 06:15:28;;;;;;;0.50;0.50;;;15.90;99.90;;;;;;4344782;32;20189;-76
2022/09/01 06:17:54;;;;;;;2.45;0.60;;;15.90;99.90;;;;;;4349176;32;21033;-75
2022/09/01 06:20:21;;;;;;;0.22;0.22;;;15.90;99.90;;;;;;4338299;32;20633;-75
2022/09/01 06:22:47;;;;;;;0.40;0.40;;;15.90;99.90;;;;;;4352935;32;20193;-75
2022/09/01 06:25:16;;;;;;;0.30;0.30;;;15.90;99.90;;;;;;4357573;32;20153;-75
2022/09/01 06:27:43;;;;;;;0.62;0.62;;;15.90;99.90;;;;;;4364566;32;20114;-75
2022/09/01 06:30:15;;;;;;;0.40;0.40;;;16.00;99.90;;;;;;4348641;32;20389;-75
2022/09/01 06:32:43;;;;;;;0.30;0.30;;;16.00;99.90;;;;;;4339411;32;20234;-76
2022/09/01 06:35:10;;;;;;;0.95;0.70;;;16.10;99.90;;;;;;4336292;32;20081;-75
2022/09/01 06:37:37;;;;;;;0.37;0.37;;;16.10;99.90;;;;;;4352070;32;20139;-75
2022/09/01 06:40:04;;;;;;;0.30;0.30;;;16.20;99.90;;;;;;4353457;32;20203;-76
2022/09/01 06:42:33;;;;;;;0.30;0.30;;;16.30;99.90;;;;;;4346523;32;20196;-76
2022/09/01 06:45:00;;;;;;;0.43;0.43;;;16.30;99.90;;;;;;4350229;32;20212;-77
2022/09/01 06:47:27;;;;;;;0.40;0.40;;;16.40;99.90;;;;;;4361360;32;20089;-75
2022/09/01 06:49:57;;;;;;;0.40;0.40;;;16.40;99.90;;;;;;4333378;32;20118;-75
2022/09/01 06:52:24;;;;;;;0.62;0.62;;;16.50;99.90;;;;;;4348326;32;20107;-75
2022/09/01 06:54:52;;;;;;;0.57;0.57;;;16.60;99.90;;;;;;4354391;32;20169;-75
2022/09/01 06:57:17;;;;;;;0.65;0.65;;;16.60;99.90;;;;;;4362137;32;20106;-75
2022/09/01 06:59:43;;;;;;;0.30;0.30;;;16.70;99.90;;;;;;4343960;32;21151;-76
2022/09/01 07:02:15;;;;;;;0.20;0.20;;;16.80;99.90;;;;;;4351014;32;20971;-75
2022/09/01 07:04:42;;;;;;;0.30;0.30;;;16.90;99.90;;;;;;4332533;32;20203;-75
2022/09/01 07:07:09;;;;;;;0.30;0.30;;;16.90;99.90;;;;;;4356129;32;20118;-74
2022/09/01 07:09:35;;;;;;;0.30;0.30;;;16.90;99.90;;;;;;4361837;32;20073;-75
2022/09/01 07:12:02;;;;;;;0.30;0.30;;;17.00;99.90;;;;;;4355259;32;20733;-75
2022/09/01 07:14:29;;;;;;;0.40;0.40;;;17.00;99.90;;;;;;4341231;32;20426;-75
2022/09/01 07:16:57;;;;;;;0.30;0.30;;;17.00;99.90;;;;;;4339303;32;20098;-74
2022/09/01 07:19:24;;;;;;;0.30;0.30;;;17.10;99.90;;;;;;4333405;32;20549;-75
2022/09/01 07:21:51;;;;;;;0.40;0.40;;;17.10;99.90;;;;;;4343579;32;20969;-75
2022/09/01 07:24:19;;;;;;;1.90;0.73;;;17.20;99.90;;;;;;4354147;32;20086;-75
2022/09/01 07:26:49;;;;;;;0.50;0.50;;;17.20;99.90;;;;;;4356230;32;20118;-76
2022/09/01 07:29:20;;;;;;;0.30;0.30;;;17.30;99.90;;;;;;4361240;32;20162;-75
2022/09/01 07:31:46;;;;;;;0.30;0.30;;;17.40;99.90;;;;;;4351469;32;20096;-75
2022/09/01 07:34:13;;;;;;;0.40;0.40;;;17.40;99.90;;;;;;4307657;32;20233;-76
2022/09/01 07:36:39;;;;;;;0.90;0.52;;;17.50;99.90;;;;;;4328125;32;20097;-76
2022/09/01 07:39:05;;;;;;;0.30;0.30;;;17.50;99.90;;;;;;4340585;32;20129;-76
2022/09/01 07:41:33;;;;;;;0.50;0.50;;;17.60;99.90;;;;;;4363428;32;20364;-77
2022/09/01 07:44:01;;;;;;;0.43;0.43;;;17.70;99.90;;;;;;4364293;32;20144;-76
2022/09/01 07:46:30;;;;;;;1.00;0.40;;;17.70;99.90;;;;;;4350002;32;20282;-75
2022/09/01 07:48:56;;;;;;;2.70;0.43;;;17.80;99.90;;;;;;4334485;32;20779;-75
2022/09/01 07:51:24;;;;;;;0.37;0.37;;;17.90;99.90;;;;;;4325938;32;21474;-75
2022/09/01 07:53:50;;;;;;;0.30;0.30;;;17.90;99.90;;;;;;4336189;32;20604;-75
2022/09/01 07:56:19;;;;;;;0.47;0.47;;;17.90;99.90;;;;;;4350768;32;20120;-75
2022/09/01 07:58:46;;;;;;;0.30;0.30;;;17.90;99.90;;;;;;4346269;32;20364;-74
2022/09/01 08:01:17;;;;;;;0.30;0.30;;;18.00;99.90;;;;;;4340187;32;20267;-75
2022/09/01 08:03:47;;;;;;;;;;;18.10;99.90;;;;;;4333520;32;20452;-74
2022/09/01 08:06:19;;;;;;;0.40;0.40;;;18.20;99.90;;;;;;4347060;32;20072;-75
2022/09/01 08:08:47;;;;;;;0.30;0.30;;;18.20;99.90;;;;;;4350743;32;20102;-73
2022/09/01 08:11:24;;;;;;;0.35;0.35;;;18.30;99.90;;;;;;4357802;32;20089;-74
2022/09/01 08:13:51;;;;;;;0.20;0.20;;;18.40;99.90;;;;;;4356244;32;20859;-75
2022/09/01 08:16:17;;;;;;;0.30;0.30;;;18.50;99.90;;;;;;4357018;32;20604;-75
2022/09/01 08:18:44;;;;;;;0.65;0.65;;;18.40;99.90;;;;;;4347324;32;20250;-76
2022/09/01 08:21:11;;;;;;;0.30;0.30;;;18.50;99.90;;;;;;4346251;32;20437;-76
2022/09/01 08:23:38;;;;;;;0.85;0.47;;;18.60;99.90;;;;;;4344725;32;20479;-76
2022/09/01 08:26:08;;;;;;;0.30;0.30;;;18.70;99.90;;;;;;4356773;32;20068;-75
2022/09/01 08:28:34;;;;;;;0.40;0.40;;;18.70;99.90;;;;;;4349969;32;20581;-75
2022/09/01 08:30:59;;;;;;;0.65;0.65;;;18.80;99.90;;;;;;4356592;32;20693;-75
2022/09/01 08:33:25;;;;;;;0.32;0.32;;;18.90;99.90;;;;;;4331632;32;154622;-75
2022/09/01 08:35:52;;;;;;;0.37;0.37;;;19.00;99.90;;;;;;4353631;32;20133;-75
2022/09/01 08:38:18;;;;;;;0.30;0.30;;;19.00;99.90;;;;;;4353201;32;20090;-76
2022/09/01 08:40:53;;;;;;;1.15;0.88;;;19.10;99.90;;;;;;4360727;32;20074;-75
2022/09/01 08:43:46;;;;;;;0.40;0.40;;;19.20;99.90;;;;;;4348501;32;20110;-75
2022/09/01 08:46:26;;;;;;;0.40;0.40;;;19.30;99.90;;;;;;4339991;32;20530;-75
2022/09/01 08:48:56;;;;;;;0.30;0.30;;;19.30;99.90;;;;;;4346438;32;20608;-75
2022/09/01 08:51:31;;;;;;;0.50;0.50;;;19.40;99.90;;;;;;4363946;32;20220;-76
2022/09/01 08:54:06;;;;;;;0.30;0.30;;;19.50;99.90;;;;;;4353288;32;20090;-76
2022/09/01 08:56:35;;;;;;;0.55;0.55;;;19.70;99.90;;;;;;4355292;32;20700;-75
2022/09/01 08:59:01;;;;;;;0.30;0.30;;;19.70;99.90;;;;;;4353421;32;20142;-75
2022/09/01 09:01:43;;;;;;;0.32;0.32;;;19.70;99.90;;;;;;4353209;32;20109;-74
2022/09/01 09:04:18;;;;;;;0.30;0.30;;;19.70;99.90;;;;;;4333930;32;20588;-75
2022/09/01 09:07:10;;;;;;;0.75;0.75;;;19.90;99.90;;;;;;4344577;32;20074;-75
2022/09/01 09:09:48;;;;;;;0.57;0.57;;;19.90;99.90;;;;;;4351002;32;20249;-75
2022/09/01 09:12:30;;;;;;;0.50;0.50;;;19.70;99.90;;;;;;4343626;32;20295;-75
2022/09/01 09:15:08;;;;;;;0.30;0.30;;;19.60;99.90;;;;;;4339368;32;20094;-75
2022/09/01 09:17:39;;;;;;;0.30;0.30;;;19.70;99.90;;;;;;4346760;32;20090;-75
2022/09/01 09:20:05;;;;;;;0.32;0.32;;;19.80;99.90;;;;;;4333138;32;20189;-75
2022/09/01 09:22:32;;;;;;;0.50;0.50;;;20.00;99.90;;;;;;4319051;32;20964;-75
2022/09/01 09:25:10;;;;;;;1.23;0.32;;;20.10;99.90;;;;;;4311645;32;20718;-75
2022/09/01 09:27:39;;;;;;;0.30;0.30;;;20.30;99.90;;;;;;4310851;32;20873;-75
2022/09/01 09:30:10;;;;;;;0.30;0.30;;;20.40;99.90;;;;;;4315190;32;20192;-74
2022/09/01 09:32:45;;;;;;;0.28;0.28;;;20.40;99.90;;;;;;4322167;32;26054;-75
2022/09/01 09:35:28;;;;;;;0.30;0.30;;;20.50;99.90;;;;;;4349383;32;20196;-75
2022/09/01 09:37:53;;;;;;;0.30;0.30;;;20.60;99.90;;;;;;4352844;32;21174;-75
2022/09/01 09:40:24;;;;;;;0.30;0.30;;;20.90;99.90;;;;;;4344445;32;20078;-76
2022/09/01 09:42:55;;;;;;;0.30;0.30;;;21.10;98.70;;;;;;4346116;32;20093;-75
2022/09/01 09:45:28;;;;;;;0.30;0.30;;;21.20;98.50;;;;;;4341320;32;22553;-76
2022/09/01 09:47:56;;;;;;;0.37;0.37;;;21.20;98.50;;;;;;4337547;32;20386;-75
2022/09/01 09:50:28;;;;;;;0.30;0.30;;;21.10;98.90;;;;;;4336764;32;20702;-75
2022/09/01 09:53:13;;;;;;;0.30;0.30;;;21.20;99.50;;;;;;4331977;32;21172;-76
2022/09/01 09:55:52;;;;;;;0.30;0.30;;;21.40;99.50;;;;;;4345317;32;20181;-77
2022/09/01 09:58:24;;;;;;;0.32;0.32;;;21.60;99.40;;;;;;4328375;32;20986;-75
2022/09/01 10:01:14;;;;;;;0.30;0.30;;;21.80;99.00;;;;;;4353462;32;20246;-75
2022/09/01 10:03:45;;;;;;;0.30;0.30;;;22.10;99.20;;;;;;4330795;32;20112;-76
2022/09/01 10:06:15;;;;;;;0.22;0.22;;;22.00;97.80;;;;;;4346528;32;20090;-76
2022/09/01 10:08:43;;;;;;;0.40;0.40;;;21.80;98.10;;;;;;4357350;32;20211;-76
2022/09/01 10:11:24;;;;;;;0.30;0.30;;;21.80;98.30;;;;;;4361881;32;21007;-77
2022/09/01 10:13:51;;;;;;;;;;;21.80;98.80;;;;;;4354765;32;20101;-76
2022/09/01 10:16:27;;;;;;;0.40;0.40;;;21.50;98.80;;;;;;4343836;32;20437;-76
2022/09/01 10:18:59;;;;;;;0.30;0.30;;;21.20;99.60;;;;;;4320781;32;20253;-75
2022/09/01 10:21:32;;;;;;;0.30;0.30;;;21.10;99.80;;;;;;4318990;32;20273;-76
2022/09/01 10:24:02;;;;;;;0.85;0.70;;;21.20;99.90;;;;;;4339841;32;20318;-77
2022/09/01 10:26:34;;;;;;;0.30;0.30;;;21.80;99.50;;;;;;4339336;32;20081;-77
2022/09/01 10:29:06;;;;;;;0.45;0.45;;;22.20;97.30;;;;;;4354318;32;20913;-76
2022/09/01 10:31:33;;;;;;;0.20;0.20;;;22.50;97.80;;;;;;4359827;32;20200;-77
2022/09/01 10:34:02;;;;;;;0.30;0.30;;;22.40;96.80;;;;;;4345126;32;20617;-76
2022/09/01 10:36:29;;;;;;;0.20;0.20;;;22.30;97.60;;;;;;4348123;32;20094;-76
2022/09/01 10:38:55;;;;;;;0.32;0.32;;;22.50;96.50;;;;;;4360383;32;20141;-76
2022/09/01 10:41:43;;;;;;;0.25;0.25;;;22.80;96.80;;;;;;4367180;32;20106;-76
2022/09/01 10:44:16;;;;;;;0.45;0.45;;;23.30;96.60;;;;;;4360608;32;20109;-76
2022/09/01 10:46:44;;;;;;;0.75;0.60;;;23.30;96.00;;;;;;4361421;32;20079;-76
2022/09/01 10:49:20;;;;;;;0.20;0.20;;;23.60;94.70;;;;;;4338904;32;20744;-76
2022/09/01 10:51:46;;;;;;;0.30;0.30;;;23.70;94.40;;;;;;4341431;32;20247;-75
2022/09/01 10:54:40;;;;;;;0.20;0.20;;;23.90;94.60;;;;;;4326599;32;20105;-76
2022/09/01 10:57:20;;;;;;;0.30;0.30;;;23.90;94.00;;;;;;4319311;32;20165;-76
2022/09/01 10:59:47;;;;;;;0.30;0.30;;;23.60;94.70;;;;;;4335316;32;21306;-76
2022/09/01 11:02:15;;;;;;;0.20;0.20;;;23.00;94.40;;;;;;4349074;32;20113;-75
2022/09/01 11:04:47;;;;;;;0.57;0.55;;;23.20;95.10;;;;;;4354972;32;20105;-76
2022/09/01 11:07:34;;;;;;;0.20;0.20;;;23.90;93.80;;;;;;4358715;32;20689;-75
2022/09/01 11:10:28;;;;;;;0.20;0.20;;;24.20;93.00;;;;;;4358810;32;20089;-76
2022/09/01 11:13:33;;;;;;;0.30;0.30;;;24.60;93.00;;;;;;4359852;32;20340;-76
2022/09/01 11:16:24;;;;;;;0.30;0.30;;;24.50;92.10;;;;;;4342454;32;20114;-75
2022/09/01 11:18:50;;;;;;;0.30;0.30;;;24.10;91.40;;;;;;4325509;32;20180;-75
2022/09/01 11:21:24;;;;;;;0.20;0.20;;;23.70;92.30;;;;;;4352127;32;20106;-76
2022/09/01 11:23:49;;;;;;;0.20;0.20;;;23.50;92.40;;;;;;4347098;32;20342;-74
2022/09/01 11:26:34;;;;;;;0.20;0.20;;;23.10;93.30;;;;;;4355164;32;20090;-74
2022/09/01 11:29:00;;;;;;;0.20;0.20;;;22.90;94.30;;;;;;4349165;32;20102;-75
2022/09/01 11:31:31;;;;;;;0.20;0.20;;;22.90;93.20;;;;;;4359112;32;20577;-75
2022/09/01 11:34:04;;;;;;;0.20;0.20;;;22.90;92.90;;;;;;4345230;32;20724;-75
2022/09/01 11:36:35;;;;;;;0.10;0.10;;;23.10;92.90;;;;;;4352423;32;20575;-75
2022/09/01 11:39:04;;;;;;;;;;;23.30;93.30;;;;;;4347099;32;20122;-75
2022/09/01 11:41:43;;;;;;;0.20;0.20;;;23.30;93.60;;;;;;4316112;32;19997;-75
2022/09/01 11:44:17;;;;;;;0.20;0.20;;;23.20;94.00;;;;;;4321977;32;20194;-75
2022/09/01 11:46:44;;;;;;;0.20;0.20;;;23.00;93.20;;;;;;4330653;32;20413;-75
2022/09/01 11:49:30;;;;;;;0.30;0.30;;;23.00;93.90;;;;;;4336524;32;20238;-76
2022/09/01 11:51:57;;;;;;;0.30;0.30;;;23.10;93.40;;;;;;4353294;32;20150;-76
2022/09/01 11:54:23;;;;;;;0.20;0.20;;;23.10;92.50;;;;;;4350614;32;20427;-75
2022/09/01 11:56:49;;;;;;;0.10;0.10;;;23.00;92.30;;;;;;4357798;32;20499;-76
2022/09/01 11:59:28;;;;;;;0.20;0.20;;;23.00;92.70;;;;;;4363535;32;20383;-76
2022/09/01 12:01:57;;;;;;;0.20;0.20;;;22.80;92.20;;;;;;4367491;32;20537;-76
2022/09/01 12:04:30;;;;;;;0.28;0.28;;;22.70;92.40;;;;;;4360487;32;20440;-75
2022/09/01 12:07:01;;;;;;;0.30;0.30;;;22.60;93.10;;;;;;4367421;32;20113;-75
2022/09/01 12:09:44;;;;;;;0.22;0.22;;;22.40;92.60;;;;;;4366968;32;20078;-76
2022/09/01 12:12:32;;;;;;;0.20;0.20;;;22.40;93.80;;;;;;4361246;32;20145;-76
2022/09/01 12:15:00;;;;;;;0.20;0.20;;;22.30;93.40;;;;;;4353475;32;20482;-76
2022/09/01 12:17:26;;;;;;;0.62;0.60;;;22.20;92.90;;;;;;4365849;32;20217;-76
2022/09/01 12:19:53;;;;;;;0.20;0.20;;;22.20;92.50;;;;;;4360589;32;20117;-73
2022/09/01 12:22:21;;;;;;;0.43;0.43;;;22.10;92.80;;;;;;4351951;32;20448;-75
2022/09/01 12:24:49;;;;;;;0.20;0.20;;;22.10;94.50;;;;;;4354430;32;20121;-76
2022/09/01 12:27:15;;;;;;;0.20;0.20;;;22.00;92.80;;;;;;4357368;32;20561;-75
2022/09/01 12:29:41;;;;;;;0.30;0.30;;;22.00;93.60;;;;;;4364960;32;20106;-75
2022/09/01 12:32:07;;;;;;;3.78;1.40;;;21.90;93.50;;;;;;4366241;32;20238;-75
2022/09/01 12:34:35;;;;;;;0.30;0.30;;;21.80;93.70;;;;;;4352567;32;20387;-75
2022/09/01 12:37:06;;;;;;;0.20;0.20;;;21.90;94.20;;;;;;4357672;32;20254;-75
2022/09/01 12:39:35;;;;;;;;;;;22.00;93.50;;;;;;4356792;32;20604;-76
2022/09/01 12:42:04;;;;;;;0.40;0.40;;;22.00;92.90;;;;;;4359983;32;19965;-76
2022/09/01 12:44:41;;;;;;;0.30;0.30;;;22.00;92.40;;;;;;4358262;32;20090;-75
2022/09/01 12:47:09;;;;;;;0.30;0.30;;;22.00;92.40;;;;;;4357098;32;20414;-75
2022/09/01 12:49:38;;;;;;;0.30;0.30;;;22.00;92.20;;;;;;4354645;32;20114;-75
2022/09/01 12:52:08;;;;;;;0.25;0.25;;;22.00;94.10;;;;;;4369648;32;20274;-75
2022/09/01 12:54:34;;;;;;;0.40;0.40;;;22.10;93.90;;;;;;4369594;32;20492;-74
2022/09/01 12:56:59;;;;;;;0.20;0.20;;;22.00;92.70;;;;;;4363031;32;20146;-74
2022/09/01 12:59:25;;;;;;;0.30;0.30;;;22.10;93.50;;;;;;4362407;32;20195;-74